Terminal Aerodrome Forecast
Issued by NWS Omaha/Valley, NE

Home | Current Version | Previous Version | Text Only | Print | Product List | Glossary On
Versions: 1 2 3 4 5 6 7 8 9 10 11 12 13 14 15 16 17 18 19 20 21
000
FTUS43 KOAX 240520
TAFLNK
TAF
KLNK 240520Z 2406/2506 11008KT P6SM OVC009
     FM240800 10009KT 5SM BR OVC008
     FM241700 12013KT P6SM OVC015
     FM242300 36009KT P6SM VCSH OVC008
     FM250200 33013KT 4SM -SNRA BR OVC008
     FM250500 32015G23KT 3SM -SN BR OVC010=

USA.gov is the U.S. government's official web portal to all federal, state and local government web resources and services.